createdAt,value
2022-10-22T00:09:08.356Z,0.80
2022-10-22T00:19:11.128Z,0.77
2022-10-22T00:29:12.680Z,0.80
2022-10-22T00:39:16.123Z,0.88
2022-10-22T00:49:17.394Z,0.52
2022-10-22T00:59:18.719Z,0.80
2022-10-22T01:09:19.998Z,0.60
2022-10-22T01:19:21.314Z,0.50
2022-10-22T01:29:22.669Z,0.65
2022-10-22T01:39:24.149Z,0.90
2022-10-22T01:49:25.471Z,0.90
2022-10-22T01:59:26.855Z,0.80
2022-10-22T02:09:28.144Z,0.50
2022-10-22T02:19:29.512Z,0.80
2022-10-22T02:29:30.850Z,0.60
2022-10-22T02:39:32.176Z,0.88
2022-10-22T02:49:33.476Z,0.98
2022-10-22T02:59:34.818Z,0.90
2022-10-22T03:09:36.241Z,0.90
2022-10-22T03:19:37.643Z,1.10
2022-10-22T03:29:39.386Z,0.70
2022-10-22T03:39:40.818Z,0.80
2022-10-22T03:49:42.170Z,0.80
2022-10-22T03:59:43.515Z,0.80
2022-10-22T04:09:44.849Z,1.13
2022-10-22T04:19:46.211Z,1.40
2022-10-22T04:29:47.848Z,1.80
2022-10-22T04:39:49.190Z,2.00
2022-10-22T04:49:50.545Z,2.03
2022-10-22T04:59:51.889Z,2.58
2022-10-22T05:09:53.278Z,2.60
2022-10-22T05:19:54.703Z,1.88
2022-10-22T05:29:56.105Z,1.92
2022-10-22T05:40:06.610Z,1.90
2022-10-22T05:50:18.708Z,2.60
2022-10-22T06:00:20.059Z,2.78
2022-10-22T06:10:21.455Z,2.95
2022-10-22T06:20:22.799Z,2.53
2022-10-22T06:30:24.240Z,2.25
2022-10-22T06:40:25.642Z,2.92
2022-10-22T06:50:26.883Z,5.97
2022-10-22T07:00:28.333Z,2.80
2022-10-22T07:10:30.742Z,2.05
2022-10-22T07:20:32.187Z,1.58
2022-10-22T07:30:33.679Z,1.63
2022-10-22T07:40:35.072Z,1.88
2022-10-22T07:50:36.498Z,1.90
2022-10-22T08:00:37.882Z,1.25
2022-10-22T08:10:39.268Z,1.30
2022-10-22T08:20:40.673Z,1.20
2022-10-22T08:30:42.875Z,1.20
2022-10-22T08:40:44.278Z,1.65
2022-10-22T08:50:45.737Z,1.08
2022-10-22T09:00:47.153Z,0.73
2022-10-22T09:10:48.461Z,1.10
2022-10-22T09:20:49.717Z,0.82
2022-10-22T09:30:51.344Z,0.82
2022-10-22T09:40:52.762Z,0.60
2022-10-22T09:50:54.120Z,1.25
2022-10-22T10:00:55.515Z,0.68
2022-10-22T10:10:56.888Z,0.88
2022-10-22T10:20:58.237Z,0.93
2022-10-22T10:30:59.693Z,1.20
2022-10-22T10:41:01.048Z,1.10
2022-10-22T10:51:02.464Z,1.00
2022-10-22T11:01:04.011Z,1.15
2022-10-22T11:11:06.605Z,1.67
2022-10-22T11:21:08.201Z,1.67
2022-10-22T11:31:09.609Z,0.90
2022-10-22T11:41:11.053Z,1.10
2022-10-22T11:51:12.431Z,1.63
2022-10-22T12:01:13.924Z,1.38
2022-10-22T12:11:15.342Z,1.25
2022-10-22T12:21:16.599Z,1.58
2022-10-22T12:31:18.027Z,1.23
2022-10-22T12:41:19.460Z,0.82
2022-10-22T12:51:20.861Z,1.33
2022-10-22T13:01:22.168Z,1.00
2022-10-22T13:11:23.418Z,1.05
2022-10-22T13:21:24.823Z,0.98
2022-10-22T13:31:26.258Z,0.98
2022-10-22T13:41:27.702Z,1.40
2022-10-22T13:51:29.176Z,1.17
2022-10-22T14:01:30.516Z,1.13
2022-10-22T14:11:32.756Z,0.80
2022-10-22T14:21:34.112Z,1.10
2022-10-22T14:31:36.533Z,1.35
2022-10-22T14:41:37.914Z,1.00
2022-10-22T14:51:39.366Z,1.35
2022-10-22T15:01:42.974Z,1.20
2022-10-22T15:11:44.480Z,0.90
2022-10-22T15:21:45.767Z,1.20
2022-10-22T15:31:47.262Z,1.15
2022-10-22T15:41:48.576Z,1.52
2022-10-22T15:51:49.971Z,1.55
2022-10-22T16:01:51.319Z,1.10
2022-10-22T16:21:55.054Z,1.00
2022-10-22T16:31:56.394Z,7.28
2022-10-22T16:41:57.756Z,5.65
2022-10-22T16:51:59.300Z,10.23
2022-10-22T17:02:00.746Z,2.00
2022-10-22T17:12:02.151Z,2.83
2022-10-22T17:22:03.507Z,2.72
2022-10-22T17:32:04.922Z,2.72
2022-10-22T17:42:06.470Z,2.80
2022-10-22T17:52:07.987Z,2.55
2022-10-22T18:02:09.335Z,5.45
2022-10-22T18:12:13.049Z,5.72
2022-10-22T18:22:14.503Z,5.85
2022-10-22T18:32:15.952Z,3.80
2022-10-22T18:42:17.427Z,4.70
2022-10-22T18:52:18.846Z,4.63
2022-10-22T19:02:20.218Z,4.40
2022-10-22T19:12:21.772Z,3.90
2022-10-22T19:22:23.126Z,3.70
2022-10-22T19:32:27.457Z,3.28
2022-10-22T19:42:31.539Z,3.30
2022-10-22T19:52:33.085Z,4.15
2022-10-22T20:02:34.363Z,3.13
2022-10-22T20:12:35.636Z,3.35
2022-10-22T20:22:37.518Z,2.95
2022-10-22T20:32:38.974Z,4.20
2022-10-22T20:42:41.039Z,3.25
2022-10-22T20:52:42.573Z,3.60
2022-10-22T21:02:43.911Z,3.22
2022-10-22T21:12:45.591Z,3.55
2022-10-22T21:22:47.210Z,3.55
2022-10-22T21:32:49.960Z,3.78
2022-10-22T21:42:51.325Z,4.07
2022-10-22T21:52:52.693Z,3.60
2022-10-22T22:02:54.020Z,4.97
2022-10-22T22:12:55.584Z,4.80
2022-10-22T22:22:57.019Z,4.80
2022-10-22T22:32:58.362Z,5.25
2022-10-22T22:42:59.723Z,5.30
2022-10-22T22:53:01.031Z,5.97
2022-10-22T23:03:02.356Z,5.57
2022-10-22T23:13:03.675Z,5.22
2022-10-22T23:23:06.287Z,5.57
2022-10-22T23:33:07.664Z,5.40
2022-10-22T23:43:09.024Z,5.18
2022-10-22T23:53:10.413Z,5.20
